Time;durP1;ratioP1;P1;durP2;ratioP2;P2;SDS_P1;SDS_P2;PMS_P1;PMS_P2;Temp;Humidity;BMP_temperature;BMP_pressure;BME280_temperature;BME280_humidity;BME280_pressure;Samples;Min_cycle;Max_cycle;Signal;HPM_P1;HPM_P2
2023/05/22 00:01:05;;;;;;;34.90;21.08;;;19.30;99.90;;;;;;5048199;28;20221;-75
2023/05/22 00:03:32;;;;;;;41.13;21.67;;;19.30;99.90;;;;;;5050316;28;20296;-75
2023/05/22 00:05:59;;;;;;;35.67;21.75;;;19.20;99.90;;;;;;5055189;28;20201;-75
2023/05/22 00:08:26;;;;;;;35.10;22.00;;;19.30;99.90;;;;;;5048757;28;20224;-75
2023/05/22 00:10:55;;;;;;;38.22;21.25;;;19.30;99.90;;;;;;5041381;28;20627;-74
2023/05/22 00:13:22;;;;;;;39.67;21.77;;;19.30;99.90;;;;;;5044468;28;20205;-73
2023/05/22 00:15:49;;;;;;;38.97;22.88;;;19.10;99.90;;;;;;5032313;28;20217;-74
2023/05/22 00:18:16;;;;;;;38.35;23.15;;;19.20;99.90;;;;;;5049714;28;20220;-75
2023/05/22 00:20:45;;;;;;;37.15;22.75;;;19.20;99.90;;;;;;5043627;28;20209;-74
2023/05/22 00:23:12;;;;;;;36.45;22.63;;;19.30;99.90;;;;;;5042453;28;20652;-74
2023/05/22 00:25:41;;;;;;;37.70;22.27;;;19.30;99.90;;;;;;5049520;28;20288;-74
2023/05/22 00:28:08;;;;;;;40.05;22.75;;;19.20;99.90;;;;;;5036976;28;20257;-74
2023/05/22 00:30:35;;;;;;;33.50;21.10;;;19.20;99.90;;;;;;5049638;28;20221;-74
2023/05/22 00:33:03;;;;;;;35.38;20.45;;;19.20;99.90;;;;;;5046109;28;20205;-73
2023/05/22 00:35:30;;;;;;;36.58;21.70;;;19.20;99.90;;;;;;5043255;28;20274;-73
2023/05/22 00:37:56;;;;;;;34.35;19.77;;;19.10;99.90;;;;;;5048722;28;20247;-75
2023/05/22 00:40:23;;;;;;;34.45;19.73;;;19.20;99.90;;;;;;5049778;28;20658;-73
2023/05/22 00:42:50;;;;;;;32.42;19.33;;;19.20;99.90;;;;;;5045990;28;20218;-73
2023/05/22 00:45:17;;;;;;;29.67;17.85;;;19.30;99.90;;;;;;5047256;28;20631;-73
2023/05/22 00:47:44;;;;;;;30.63;18.00;;;19.30;99.90;;;;;;5030942;28;20201;-74
2023/05/22 00:50:11;;;;;;;32.38;18.05;;;19.30;99.90;;;;;;5049640;28;20209;-74
2023/05/22 00:52:41;;;;;;;34.30;18.88;;;19.30;99.90;;;;;;5046043;28;20213;-74
2023/05/22 00:55:10;;;;;;;27.40;18.27;;;19.30;99.90;;;;;;5048375;28;20732;-73
2023/05/22 00:57:40;;;;;;;31.02;18.17;;;19.40;99.90;;;;;;5046072;28;20208;-75
2023/05/22 01:00:12;;;;;;;33.95;19.23;;;19.40;99.90;;;;;;5048928;28;20275;-74
2023/05/22 01:02:41;;;;;;;32.20;18.92;;;19.40;99.90;;;;;;5027909;28;20820;-73
2023/05/22 01:05:11;;;;;;;34.30;20.30;;;19.40;99.90;;;;;;5047356;28;20209;-74
2023/05/22 01:07:38;;;;;;;30.35;19.88;;;19.30;99.90;;;;;;5049787;28;20217;-73
2023/05/22 01:10:06;;;;;;;36.88;21.00;;;19.30;99.90;;;;;;5047498;28;20310;-73
2023/05/22 01:12:54;;;;;;;34.45;21.13;;;19.30;99.90;;;;;;5046821;28;20204;-74
2023/05/22 01:15:44;;;;;;;35.55;20.05;;;19.30;99.90;;;;;;5030607;28;20221;-73
2023/05/22 01:18:18;;;;;;;35.25;21.08;;;19.20;99.90;;;;;;5043207;28;20224;-74
2023/05/22 01:21:05;;;;;;;33.90;19.08;;;19.20;99.90;;;;;;5045548;28;20221;-74
2023/05/22 01:23:52;;;;;;;35.20;20.45;;;19.20;99.90;;;;;;5043006;28;20209;-75
2023/05/22 01:26:44;;;;;;;34.47;20.35;;;19.20;99.90;;;;;;5044511;28;20251;-74
2023/05/22 01:29:32;;;;;;;30.83;19.83;;;19.10;99.90;;;;;;5039774;28;20252;-73
2023/05/22 01:32:01;;;;;;;35.33;19.75;;;19.10;99.90;;;;;;5048177;28;20244;-74
2023/05/22 01:34:30;;;;;;;39.10;20.85;;;19.10;99.90;;;;;;5046089;28;20275;-74
2023/05/22 01:36:59;;;;;;;35.65;21.17;;;19.00;99.90;;;;;;5029031;28;20223;-74
2023/05/22 01:39:27;;;;;;;36.10;20.35;;;18.90;99.90;;;;;;5042931;28;20205;-74
2023/05/22 01:41:54;;;;;;;31.27;18.55;;;18.90;99.90;;;;;;5049094;28;20206;-74
2023/05/22 01:44:22;;;;;;;33.78;20.77;;;18.80;99.90;;;;;;5043817;28;20342;-75
2023/05/22 01:46:49;;;;;;;32.28;20.25;;;18.60;99.90;;;;;;5048831;28;20229;-75
2023/05/22 01:49:16;;;;;;;36.67;20.45;;;18.70;99.90;;;;;;5043002;28;20324;-74
2023/05/22 01:51:52;;;;;;;34.00;19.58;;;18.60;99.90;;;;;;5043758;28;20263;-74
2023/05/22 01:54:42;;;;;;;35.70;20.02;;;18.60;99.90;;;;;;5045196;28;20209;-73
2023/05/22 01:57:27;;;;;;;34.17;19.65;;;18.60;99.90;;;;;;5042528;28;20217;-73
2023/05/22 02:00:08;;;;;;;33.35;19.33;;;18.50;99.90;;;;;;5048364;28;20506;-74
2023/05/22 02:02:37;;;;;;;36.28;20.25;;;18.40;99.90;;;;;;5044792;28;20197;-74
2023/05/22 02:05:08;;;;;;;36.95;18.63;;;18.40;99.90;;;;;;5038998;28;20203;-75
2023/05/22 02:07:38;;;;;;;35.10;19.83;;;18.40;99.90;;;;;;5030442;28;20213;-75
2023/05/22 02:10:07;;;;;;;32.72;18.58;;;18.30;99.90;;;;;;5046045;28;20232;-74
2023/05/22 02:12:34;;;;;;;34.63;19.67;;;18.20;99.90;;;;;;5052177;28;20205;-76
2023/05/22 02:15:02;;;;;;;32.22;19.55;;;18.20;99.90;;;;;;5048993;28;20596;-74
2023/05/22 02:17:28;;;;;;;32.88;19.13;;;18.10;99.90;;;;;;5053465;28;20236;-74
2023/05/22 02:19:55;;;;;;;34.05;19.55;;;18.10;99.90;;;;;;5046384;28;20242;-74
2023/05/22 02:22:22;;;;;;;32.40;18.83;;;18.00;99.90;;;;;;5031421;28;20257;-74
2023/05/22 02:24:49;;;;;;;35.17;19.77;;;17.90;99.90;;;;;;5037945;28;20216;-74
2023/05/22 02:27:16;;;;;;;29.95;18.50;;;17.90;99.90;;;;;;5050424;28;20201;-74
2023/05/22 02:29:44;;;;;;;29.42;17.25;;;17.90;99.90;;;;;;5052832;28;20228;-74
2023/05/22 02:32:11;;;;;;;33.58;19.27;;;17.80;99.90;;;;;;5041037;28;20280;-75
2023/05/22 02:34:38;;;;;;;29.83;19.25;;;17.80;99.90;;;;;;5052344;28;20251;-73
2023/05/22 02:37:04;;;;;;;31.77;18.90;;;17.80;99.90;;;;;;5046915;28;20202;-74
2023/05/22 02:39:31;;;;;;;33.08;18.60;;;17.80;99.90;;;;;;5052137;28;20588;-73
2023/05/22 02:41:58;;;;;;;32.72;18.85;;;17.70;99.90;;;;;;5051611;28;20255;-74
2023/05/22 02:44:25;;;;;;;31.80;18.25;;;17.70;99.90;;;;;;5048817;28;20581;-75
2023/05/22 02:46:51;;;;;;;32.65;19.85;;;17.70;99.90;;;;;;5052032;28;20228;-75
2023/05/22 02:49:18;;;;;;;30.30;18.80;;;17.60;99.90;;;;;;5051579;28;20229;-76
2023/05/22 02:51:46;;;;;;;31.33;19.73;;;17.70;99.90;;;;;;5052185;28;20267;-75
2023/05/22 02:54:14;;;;;;;32.95;19.77;;;17.70;99.90;;;;;;5051843;28;20303;-75
2023/05/22 02:56:42;;;;;;;34.55;19.55;;;17.70;99.90;;;;;;5052088;28;20209;-73
2023/05/22 02:59:09;;;;;;;30.23;18.50;;;17.60;99.90;;;;;;5047427;28;20252;-74
2023/05/22 03:01:37;;;;;;;33.13;19.98;;;17.60;99.90;;;;;;5028154;28;20202;-73
2023/05/22 03:04:05;;;;;;;32.70;19.67;;;17.60;99.90;;;;;;5047835;28;20205;-75
2023/05/22 03:06:33;;;;;;;32.60;21.13;;;17.60;99.90;;;;;;5054082;28;20547;-74
2023/05/22 03:09:02;;;;;;;30.80;19.30;;;17.50;99.90;;;;;;5051852;28;20590;-75
2023/05/22 03:11:30;;;;;;;34.05;20.33;;;17.60;99.90;;;;;;5049700;28;20216;-74
2023/05/22 03:13:57;;;;;;;33.22;19.95;;;17.60;99.90;;;;;;5048163;28;20197;-76
2023/05/22 03:16:23;;;;;;;36.72;21.45;;;17.50;99.90;;;;;;5046445;28;20193;-74
2023/05/22 03:19:07;;;;;;;30.50;19.83;;;17.60;99.90;;;;;;5042098;28;20245;-74
2023/05/22 03:21:34;;;;;;;34.75;20.73;;;17.60;99.90;;;;;;5047782;28;20756;-73
2023/05/22 03:24:00;;;;;;;31.58;19.38;;;17.60;99.90;;;;;;5047245;28;20278;-74
2023/05/22 03:26:27;;;;;;;33.70;19.10;;;17.50;99.90;;;;;;5051073;28;20621;-74
2023/05/22 03:28:55;;;;;;;32.08;18.98;;;17.50;99.90;;;;;;5051653;28;20252;-74
2023/05/22 03:31:27;;;;;;;33.40;19.05;;;17.50;99.90;;;;;;5050861;28;20232;-74
2023/05/22 03:33:54;;;;;;;35.67;19.40;;;17.50;99.90;;;;;;5050946;28;20259;-75
2023/05/22 03:36:22;;;;;;;34.75;20.30;;;17.40;99.90;;;;;;5047362;28;20215;-74
2023/05/22 03:38:48;;;;;;;30.40;18.35;;;17.40;99.90;;;;;;5046043;28;20255;-74
2023/05/22 03:41:15;;;;;;;36.30;19.80;;;17.40;99.90;;;;;;5030101;28;20209;-74
2023/05/22 03:43:43;;;;;;;27.77;17.25;;;17.40;99.90;;;;;;5049255;28;20262;-74
2023/05/22 03:46:10;;;;;;;30.50;18.90;;;17.30;99.90;;;;;;5028729;28;20225;-75
2023/05/22 03:48:38;;;;;;;29.70;17.83;;;17.30;99.90;;;;;;5046727;28;20251;-74
2023/05/22 03:51:05;;;;;;;31.33;19.23;;;17.30;99.90;;;;;;5047215;28;20209;-74
2023/05/22 03:53:32;;;;;;;36.25;20.65;;;17.20;99.90;;;;;;5050751;28;20614;-75
2023/05/22 03:55:59;;;;;;;36.53;21.60;;;17.20;99.90;;;;;;5047431;28;20330;-75
2023/05/22 03:58:26;;;;;;;31.02;20.05;;;17.20;99.90;;;;;;5051135;28;20209;-75
2023/05/22 04:00:57;;;;;;;28.73;18.48;;;17.20;99.90;;;;;;5047937;28;20213;-75
2023/05/22 04:03:24;;;;;;;32.50;21.33;;;17.10;99.90;;;;;;5045540;28;20252;-74
2023/05/22 04:05:51;;;;;;;31.63;19.83;;;17.10;99.90;;;;;;5027541;28;20256;-74
2023/05/22 04:08:18;;;;;;;36.03;19.88;;;17.10;99.90;;;;;;5048391;28;20202;-74
2023/05/22 04:10:48;;;;;;;33.00;20.05;;;17.10;99.90;;;;;;5048465;28;20251;-74
2023/05/22 04:13:15;;;;;;;35.42;20.33;;;17.10;99.90;;;;;;5047102;28;20197;-73
2023/05/22 04:15:44;;;;;;;33.88;20.10;;;17.10;99.90;;;;;;5041476;28;20221;-74
2023/05/22 04:18:12;;;;;;;33.00;20.00;;;17.10;99.90;;;;;;5050240;28;20292;-74
2023/05/22 04:20:39;;;;;;;34.77;20.33;;;17.00;99.90;;;;;;5050022;28;20210;-75
2023/05/22 04:23:06;;;;;;;32.03;19.47;;;17.10;99.90;;;;;;5043932;28;20212;-75
2023/05/22 04:25:35;;;;;;;32.58;20.25;;;17.00;99.90;;;;;;5050510;28;20212;-74
2023/05/22 04:28:02;;;;;;;35.80;20.10;;;16.90;99.90;;;;;;5049759;28;20217;-74
2023/05/22 04:30:32;;;;;;;32.30;19.37;;;16.90;99.90;;;;;;5049654;28;20332;-75
2023/05/22 04:33:00;;;;;;;35.50;21.27;;;16.90;99.90;;;;;;5051870;28;20254;-75
2023/05/22 04:35:30;;;;;;;34.00;20.55;;;16.90;99.90;;;;;;5051282;28;20245;-76
2023/05/22 04:38:01;;;;;;;34.15;19.85;;;16.80;99.90;;;;;;5032191;28;20253;-73
2023/05/22 04:40:29;;;;;;;35.27;19.77;;;16.90;99.90;;;;;;5042518;28;20225;-75
2023/05/22 04:42:58;;;;;;;34.50;20.92;;;16.80;99.90;;;;;;5046020;28;20203;-74
2023/05/22 04:45:27;;;;;;;32.15;20.48;;;16.80;99.90;;;;;;5044824;28;20264;-75
2023/05/22 04:47:54;;;;;;;30.60;19.35;;;16.80;99.90;;;;;;5048182;28;20200;-74
2023/05/22 04:50:22;;;;;;;32.55;20.73;;;16.80;99.90;;;;;;5043013;28;20306;-74
2023/05/22 04:52:49;;;;;;;28.40;18.48;;;16.90;99.90;;;;;;5045031;28;20657;-73
2023/05/22 04:55:17;;;;;;;27.95;18.23;;;16.90;99.90;;;;;;5033760;28;20565;-75
2023/05/22 04:57:46;;;;;;;32.05;19.40;;;16.90;99.90;;;;;;5046089;28;20203;-73
2023/05/22 05:00:15;;;;;;;29.83;19.75;;;17.00;99.90;;;;;;5046513;28;20209;-74
2023/05/22 05:02:43;;;;;;;31.83;19.67;;;17.00;99.90;;;;;;5042152;28;20688;-73
2023/05/22 05:05:09;;;;;;;31.27;18.08;;;17.10;99.90;;;;;;5046899;28;20287;-73
2023/05/22 05:07:37;;;;;;;31.00;20.27;;;17.30;99.90;;;;;;5030452;28;20211;-77
2023/05/22 05:10:05;;;;;;;31.58;19.52;;;17.30;99.90;;;;;;5049720;28;20233;-73
2023/05/22 05:12:32;;;;;;;31.40;20.50;;;17.30;99.90;;;;;;5045853;28;20204;-75
2023/05/22 05:14:59;;;;;;;30.08;19.17;;;17.30;99.90;;;;;;5044246;28;20221;-74
2023/05/22 05:17:26;;;;;;;32.47;18.65;;;17.40;99.90;;;;;;5043791;28;20209;-75
2023/05/22 05:19:53;;;;;;;34.15;19.60;;;17.50;99.90;;;;;;5044143;28;20209;-76
2023/05/22 05:22:20;;;;;;;35.90;19.83;;;17.60;99.90;;;;;;5048152;28;20702;-74
2023/05/22 05:24:46;;;;;;;30.65;18.48;;;17.60;99.90;;;;;;5045930;28;20229;-75
2023/05/22 05:27:14;;;;;;;34.00;20.17;;;17.70;99.90;;;;;;5049199;28;20558;-75
2023/05/22 05:29:41;;;;;;;31.80;19.05;;;17.80;99.90;;;;;;5045313;28;20682;-75
2023/05/22 05:32:10;;;;;;;29.58;17.55;;;17.90;99.90;;;;;;5043107;28;20693;-75
2023/05/22 05:34:37;;;;;;;31.35;19.30;;;18.10;99.90;;;;;;5041190;28;20199;-77
2023/05/22 05:37:04;;;;;;;29.35;18.17;;;18.30;99.90;;;;;;5043293;28;20205;-75
2023/05/22 05:39:31;;;;;;;26.38;16.95;;;18.90;99.90;;;;;;5047683;28;20230;-76
2023/05/22 05:41:58;;;;;;;26.27;17.02;;;19.50;99.90;;;;;;5033446;28;20216;-76
2023/05/22 05:44:25;;;;;;;26.95;16.77;;;20.20;99.90;;;;;;5048536;28;20213;-75
2023/05/22 05:46:52;;;;;;;24.15;16.13;;;20.90;99.90;;;;;;5046179;28;20208;-75
2023/05/22 05:49:19;;;;;;;25.15;15.75;;;21.80;99.90;;;;;;5048843;28;20193;-76
2023/05/22 05:51:46;;;;;;;20.55;14.68;;;22.50;99.90;;;;;;5048668;28;20231;-75
2023/05/22 05:54:13;;;;;;;22.08;14.70;;;23.10;99.90;;;;;;5052554;28;20209;-75
2023/05/22 05:56:40;;;;;;;23.15;14.82;;;23.60;99.90;;;;;;5047826;28;20219;-75
2023/05/22 05:59:06;;;;;;;19.83;14.93;;;24.00;99.90;;;;;;5051328;28;20483;-74
2023/05/22 06:01:34;;;;;;;22.38;15.30;;;24.20;99.90;;;;;;5047718;28;20209;-74
2023/05/22 06:04:02;;;;;;;22.83;15.23;;;24.40;99.90;;;;;;5051601;28;20583;-75
2023/05/22 06:06:38;;;;;;;22.08;13.98;;;24.70;99.90;;;;;;5051484;28;20231;-75
2023/05/22 06:09:05;;;;;;;19.98;14.25;;;25.10;99.90;;;;;;5047626;28;20603;-75
2023/05/22 06:11:33;;;;;;;19.45;14.20;;;25.40;99.90;;;;;;5047198;28;20268;-76
2023/05/22 06:14:01;;;;;;;18.05;13.65;;;25.70;99.90;;;;;;5056140;28;20203;-75
2023/05/22 06:16:28;;;;;;;17.83;13.50;;;25.80;99.90;;;;;;5052093;28;20663;-75
2023/05/22 06:18:59;;;;;;;16.90;12.60;;;26.10;99.90;;;;;;5051276;28;20205;-76
2023/05/22 06:21:26;;;;;;;18.10;13.40;;;26.50;99.90;;;;;;5034507;28;20612;-77
2023/05/22 06:23:53;;;;;;;15.73;12.48;;;26.70;99.90;;;;;;5034460;28;20665;-76
2023/05/22 06:26:21;;;;;;;17.42;12.45;;;27.00;99.90;;;;;;5048303;28;20209;-75
2023/05/22 06:28:48;;;;;;;16.58;12.77;;;27.10;99.90;;;;;;5049222;28;20693;-75
2023/05/22 06:31:15;;;;;;;16.05;13.02;;;27.10;99.90;;;;;;5039467;28;20240;-74
2023/05/22 06:33:41;;;;;;;16.90;12.55;;;27.00;99.90;;;;;;5063602;28;20270;-74
2023/05/22 06:36:10;;;;;;;17.02;12.77;;;27.00;99.90;;;;;;5059380;28;20232;-74
2023/05/22 06:38:40;;;;;;;15.43;11.95;;;27.10;99.90;;;;;;5067002;28;20212;-74
2023/05/22 06:41:10;;;;;;;15.93;12.38;;;27.20;99.90;;;;;;5066539;28;20287;-77
2023/05/22 06:43:36;;;;;;;16.58;12.50;;;27.20;99.90;;;;;;5063126;28;20208;-75
2023/05/22 06:46:05;;;;;;;12.95;11.38;;;27.30;99.90;;;;;;5059536;28;20205;-76
2023/05/22 06:48:34;;;;;;;15.25;12.63;;;27.30;99.90;;;;;;5067676;28;20204;-75
2023/05/22 06:51:01;;;;;;;17.75;13.35;;;27.00;99.90;;;;;;5066326;28;20232;-75
2023/05/22 06:53:28;;;;;;;16.58;12.77;;;27.00;99.90;;;;;;5070370;28;20291;-75
2023/05/22 06:55:56;;;;;;;17.05;12.45;;;27.10;99.90;;;;;;5063868;28;20213;-76
2023/05/22 06:58:22;;;;;;;16.77;12.93;;;27.20;99.90;;;;;;5070862;28;20258;-76
2023/05/22 07:00:49;;;;;;;17.95;12.20;;;27.50;99.90;;;;;;5065506;28;20692;-75
2023/05/22 07:03:16;;;;;;;16.52;12.80;;;27.60;99.90;;;;;;5058160;28;20196;-75
2023/05/22 07:05:43;;;;;;;17.95;13.57;;;27.30;99.90;;;;;;5072206;28;20258;-74
2023/05/22 07:08:10;;;;;;;21.90;13.88;;;27.00;99.90;;;;;;5071122;28;20890;-75
2023/05/22 07:10:37;;;;;;;19.02;13.82;;;26.50;99.90;;;;;;5071158;28;20652;-76
2023/05/22 07:13:03;;;;;;;18.63;14.60;;;26.10;99.90;;;;;;5067754;28;20292;-75
2023/05/22 07:15:30;;;;;;;19.60;14.95;;;25.60;99.90;;;;;;5066044;28;20216;-74
2023/05/22 07:17:57;;;;;;;22.45;15.20;;;25.30;99.90;;;;;;5064173;28;20246;-75
2023/05/22 07:20:25;;;;;;;21.45;15.40;;;24.90;99.90;;;;;;5066534;28;20205;-75
2023/05/22 07:22:53;;;;;;;20.27;14.90;;;24.70;99.90;;;;;;5068543;28;20292;-74
2023/05/22 07:25:20;;;;;;;22.58;15.50;;;24.60;99.90;;;;;;5067597;28;20204;-74
2023/05/22 07:27:47;;;;;;;22.75;16.38;;;24.50;99.90;;;;;;5060877;28;20706;-74
2023/05/22 07:30:14;;;;;;;21.00;15.07;;;24.40;99.90;;;;;;5078456;28;20227;-74
2023/05/22 07:32:41;;;;;;;23.50;15.07;;;24.50;99.90;;;;;;5064545;28;20521;-75
2023/05/22 07:35:09;;;;;;;23.83;15.88;;;24.60;99.90;;;;;;5067022;28;20261;-75
2023/05/22 07:37:37;;;;;;;23.65;15.43;;;24.60;99.90;;;;;;5066182;28;20231;-76
2023/05/22 07:40:08;;;;;;;22.65;15.20;;;24.50;99.90;;;;;;5059774;28;20235;-75
2023/05/22 07:42:35;;;;;;;23.17;15.55;;;24.50;99.90;;;;;;5067310;28;20614;-75
2023/05/22 07:45:07;;;;;;;21.77;15.38;;;24.60;99.90;;;;;;5062038;28;20613;-75
2023/05/22 07:47:40;;;;;;;21.17;15.18;;;24.60;99.90;;;;;;5065008;28;20200;-76
2023/05/22 07:50:07;;;;;;;21.02;15.57;;;24.70;99.90;;;;;;5068672;28;20235;-75
2023/05/22 07:52:34;;;;;;;24.38;15.45;;;24.80;99.90;;;;;;5065086;28;20216;-75
2023/05/22 07:55:01;;;;;;;21.38;14.85;;;24.90;99.90;;;;;;5082332;28;20208;-74
2023/05/22 07:57:28;;;;;;;20.70;14.65;;;24.90;99.90;;;;;;5064563;28;20205;-74
2023/05/22 07:59:56;;;;;;;24.23;15.95;;;25.00;99.90;;;;;;5059930;28;20213;-74
2023/05/22 08:02:22;;;;;;;20.27;14.82;;;25.00;99.90;;;;;;5064819;28;20200;-75
2023/05/22 08:04:49;;;;;;;22.90;15.02;;;25.00;99.90;;;;;;5047150;28;20201;-75
2023/05/22 08:07:16;;;;;;;24.13;16.52;;;25.00;99.90;;;;;;5065160;28;20654;-75
2023/05/22 08:09:45;;;;;;;23.30;16.40;;;25.10;99.90;;;;;;5069724;28;20196;-74
2023/05/22 08:12:12;;;;;;;24.75;15.63;;;25.20;99.90;;;;;;5067464;28;20204;-76
2023/05/22 08:14:40;;;;;;;22.48;14.80;;;25.20;99.90;;;;;;5065429;28;20269;-76
2023/05/22 08:17:06;;;;;;;25.23;17.13;;;25.30;99.90;;;;;;5069713;28;20200;-75
2023/05/22 08:19:33;;;;;;;24.02;17.08;;;25.30;99.90;;;;;;5063403;28;20216;-75
2023/05/22 08:22:00;;;;;;;21.60;16.63;;;25.30;99.90;;;;;;5073192;28;20192;-75
2023/05/22 08:24:29;;;;;;;24.23;16.85;;;25.30;99.90;;;;;;5061456;28;20200;-74
2023/05/22 08:26:57;;;;;;;22.42;16.60;;;25.30;99.90;;;;;;5066690;28;20270;-75
2023/05/22 08:29:24;;;;;;;24.63;17.17;;;25.40;99.90;;;;;;5065878;28;20232;-75
2023/05/22 08:31:52;;;;;;;24.48;17.15;;;25.50;99.90;;;;;;5059339;28;20244;-75
2023/05/22 08:34:19;;;;;;;23.10;17.83;;;25.40;99.90;;;;;;5050187;28;20251;-75
2023/05/22 08:36:47;;;;;;;24.38;17.00;;;25.30;99.90;;;;;;5045646;28;20224;-75
2023/05/22 08:39:14;;;;;;;24.63;16.70;;;25.40;99.90;;;;;;5046129;28;20224;-75
2023/05/22 08:41:44;;;;;;;24.20;17.48;;;25.70;99.90;;;;;;5049777;28;20275;-75
2023/05/22 08:44:12;;;;;;;22.00;17.30;;;26.10;99.90;;;;;;5045556;28;20244;-74
2023/05/22 08:46:43;;;;;;;22.42;16.58;;;26.50;99.90;;;;;;5031204;28;20599;-76
2023/05/22 08:49:11;;;;;;;23.67;17.77;;;26.80;99.90;;;;;;5032224;28;20288;-74
2023/05/22 08:51:41;;;;;;;23.60;17.48;;;27.00;99.90;;;;;;5052283;28;20251;-75
2023/05/22 08:54:10;;;;;;;22.67;17.40;;;27.20;99.90;;;;;;5040583;28;20205;-75
2023/05/22 08:56:38;;;;;;;24.67;17.63;;;27.30;99.90;;;;;;5047915;28;20622;-76
2023/05/22 08:59:20;;;;;;;26.58;17.63;;;27.30;99.90;;;;;;5047238;28;20217;-76
2023/05/22 09:01:48;;;;;;;22.52;16.80;;;27.40;99.90;;;;;;5027584;28;20608;-75
2023/05/22 09:04:15;;;;;;;21.83;16.48;;;27.60;99.90;;;;;;5049024;28;20774;-75
2023/05/22 09:06:45;;;;;;;21.85;16.85;;;27.80;99.90;;;;;;5042467;28;20208;-75
2023/05/22 09:09:12;;;;;;;24.13;16.85;;;27.70;99.90;;;;;;5029138;28;20209;-76
2023/05/22 09:11:39;;;;;;;21.45;16.48;;;27.70;99.90;;;;;;5047666;28;20283;-74
2023/05/22 09:14:08;;;;;;;20.70;16.77;;;27.70;99.90;;;;;;5043762;28;20659;-75
2023/05/22 09:16:45;;;;;;;20.88;17.00;;;27.70;99.90;;;;;;5046587;28;20521;-75
2023/05/22 09:19:13;;;;;;;20.67;15.65;;;27.70;99.90;;;;;;5043546;28;20202;-75
2023/05/22 09:21:41;;;;;;;21.35;16.05;;;27.80;99.90;;;;;;5048586;28;20580;-75
2023/05/22 09:24:09;;;;;;;21.00;16.33;;;27.90;99.90;;;;;;5046331;28;20550;-76
2023/05/22 09:26:39;;;;;;;21.25;16.75;;;28.00;99.90;;;;;;5047039;28;20193;-76
2023/05/22 09:29:07;;;;;;;20.52;17.23;;;28.00;99.90;;;;;;5045444;28;20193;-76
2023/05/22 09:31:41;;;;;;;22.15;17.48;;;27.90;99.90;;;;;;5040879;28;20228;-76
2023/05/22 09:34:12;;;;;;;20.92;16.70;;;27.90;99.90;;;;;;5065908;28;20260;-76
2023/05/22 09:36:40;;;;;;;21.75;15.75;;;27.80;99.90;;;;;;5065516;28;20200;-77
2023/05/22 09:39:08;;;;;;;19.52;15.40;;;27.70;99.90;;;;;;5064033;28;20215;-76
2023/05/22 09:41:37;;;;;;;22.35;16.88;;;27.60;99.90;;;;;;5063744;28;20250;-75
2023/05/22 09:44:14;;;;;;;21.13;16.45;;;27.70;99.90;;;;;;5065960;28;20196;-76
2023/05/22 09:46:46;;;;;;;19.15;15.02;;;27.60;99.90;;;;;;5067256;28;20231;-75
2023/05/22 09:49:13;;;;;;;23.02;16.58;;;27.50;99.90;;;;;;5063215;28;20235;-76
2023/05/22 09:51:46;;;;;;;21.02;15.35;;;27.50;99.90;;;;;;5064274;28;20237;-74
2023/05/22 09:54:14;;;;;;;19.23;15.50;;;27.60;99.90;;;;;;5058657;28;20201;-74
2023/05/22 09:56:46;;;;;;;18.90;14.25;;;27.60;99.90;;;;;;5064085;28;20197;-75
2023/05/22 09:59:19;;;;;;;21.83;15.68;;;27.70;99.90;;;;;;5064836;28;20251;-75
2023/05/22 10:01:48;;;;;;;21.13;15.05;;;27.80;99.90;;;;;;5071002;28;20215;-75
2023/05/22 10:04:17;;;;;;;20.13;15.02;;;27.80;99.90;;;;;;5080909;28;20271;-75
2023/05/22 10:06:49;;;;;;;18.80;14.90;;;27.90;99.90;;;;;;5073083;28;20263;-75
2023/05/22 10:09:20;;;;;;;22.63;17.25;;;28.10;99.90;;;;;;5069097;28;20208;-75
2023/05/22 10:11:49;;;;;;;18.42;14.95;;;28.00;99.90;;;;;;5068362;28;20235;-76
2023/05/22 10:14:16;;;;;;;21.25;15.98;;;28.10;99.90;;;;;;5061853;28;20265;-77
2023/05/22 10:16:44;;;;;;;21.33;15.73;;;28.20;99.90;;;;;;5064783;28;20258;-75
2023/05/22 10:19:11;;;;;;;19.55;14.88;;;28.10;99.90;;;;;;5050089;28;20250;-76
2023/05/22 10:21:40;;;;;;;19.00;14.48;;;28.20;99.90;;;;;;5078005;28;20197;-77
2023/05/22 10:24:08;;;;;;;18.27;14.70;;;28.00;99.90;;;;;;5064764;28;20193;-75
2023/05/22 10:26:36;;;;;;;16.63;13.48;;;28.10;99.90;;;;;;5070012;28;20189;-75
2023/05/22 10:29:19;;;;;;;17.60;13.30;;;28.10;99.90;;;;;;5081209;28;20196;-75
2023/05/22 10:31:55;;;;;;;21.67;16.60;;;28.20;99.90;;;;;;5064375;28;20232;-76
2023/05/22 10:34:35;;;;;;;18.70;15.38;;;28.20;99.90;;;;;;5070909;28;20204;-74
2023/05/22 10:37:10;;;;;;;19.98;14.93;;;28.10;99.90;;;;;;5066705;28;20201;-76
2023/05/22 10:39:59;;;;;;;18.48;14.73;;;28.10;99.90;;;;;;5064881;28;20294;-75
2023/05/22 10:42:30;;;;;;;19.23;14.48;;;28.10;99.90;;;;;;5082547;28;20292;-76
2023/05/22 10:44:59;;;;;;;18.38;14.48;;;28.00;99.90;;;;;;5064144;28;20266;-74
2023/05/22 10:47:26;;;;;;;20.40;14.75;;;27.90;99.90;;;;;;5065589;28;20201;-77
2023/05/22 10:50:25;;;;;;;18.67;14.05;;;27.90;99.90;;;;;;5068628;28;20656;-75
2023/05/22 10:53:30;;;;;;;16.75;12.90;;;27.90;99.90;;;;;;5047377;28;20201;-75
2023/05/22 10:56:12;;;;;;;17.63;13.48;;;28.00;99.90;;;;;;5046970;28;20284;-76
2023/05/22 10:58:43;;;;;;;14.05;11.48;;;27.90;99.90;;;;;;5053902;28;20426;-76
2023/05/22 11:01:19;;;;;;;14.98;12.23;;;28.00;99.90;;;;;;5040945;28;20217;-76
2023/05/22 11:04:02;;;;;;;15.95;11.55;;;28.00;99.90;;;;;;5058664;28;20217;-75
2023/05/22 11:06:32;;;;;;;14.05;11.35;;;28.10;99.90;;;;;;5047227;28;20208;-75
2023/05/22 11:09:14;;;;;;;18.33;12.98;;;28.10;99.90;;;;;;5062317;28;20216;-76
2023/05/22 11:11:41;;;;;;;17.80;12.40;;;28.20;99.90;;;;;;5061060;28;20229;-76
2023/05/22 11:14:12;;;;;;;17.95;13.10;;;28.20;99.90;;;;;;5044877;28;20221;-77
2023/05/22 11:16:39;;;;;;;17.05;13.02;;;28.20;99.90;;;;;;5049761;28;20212;-77
2023/05/22 11:19:07;;;;;;;18.73;13.07;;;28.30;99.90;;;;;;5049754;28;20228;-77
2023/05/22 11:21:49;;;;;;;17.20;13.18;;;28.40;99.90;;;;;;5046341;28;20266;-76
2023/05/22 11:24:16;;;;;;;17.45;13.55;;;28.50;99.90;;;;;;5047428;28;20231;-76
2023/05/22 11:27:00;;;;;;;17.58;13.55;;;28.50;99.90;;;;;;5051164;28;20201;-76
2023/05/22 11:29:28;;;;;;;16.83;11.35;;;28.70;99.90;;;;;;5050929;28;20291;-76
2023/05/22 11:31:57;;;;;;;15.05;11.60;;;28.70;99.90;;;;;;5049475;28;20307;-77
2023/05/22 11:34:26;;;;;;;16.70;12.32;;;28.80;99.90;;;;;;5046113;28;20201;-78
2023/05/22 11:36:58;;;;;;;14.35;10.73;;;28.90;99.90;;;;;;5041625;28;20272;-76
2023/05/22 11:39:26;;;;;;;19.85;12.75;;;28.80;99.90;;;;;;5041276;28;20697;-77
2023/05/22 11:41:53;;;;;;;12.60;9.98;;;28.80;99.90;;;;;;5044058;28;20204;-78
2023/05/22 11:44:20;;;;;;;12.35;9.63;;;29.00;99.90;;;;;;5050472;28;20231;-77
2023/05/22 11:46:47;;;;;;;12.52;10.57;;;29.30;99.90;;;;;;5054737;28;20205;-77
2023/05/22 11:49:15;;;;;;;13.77;10.40;;;29.50;99.90;;;;;;5046566;28;20228;-77
2023/05/22 11:51:47;;;;;;;14.90;10.68;;;29.60;99.90;;;;;;5042158;28;20277;-76
2023/05/22 11:54:17;;;;;;;16.65;11.60;;;29.70;99.90;;;;;;5042178;28;20677;-77
2023/05/22 11:56:44;;;;;;;16.20;12.07;;;29.70;99.90;;;;;;5036353;28;20292;-77
2023/05/22 11:59:11;;;;;;;14.32;10.93;;;29.70;99.90;;;;;;5047965;28;20248;-78
2023/05/22 12:01:38;;;;;;;12.82;10.60;;;29.60;99.90;;;;;;5061698;28;20197;-78
2023/05/22 12:04:05;;;;;;;14.90;10.48;;;29.60;99.90;;;;;;5039084;28;20258;-76
2023/05/22 12:06:32;;;;;;;12.32;10.32;;;29.50;99.90;;;;;;5041682;28;20197;-77
2023/05/22 12:09:00;;;;;;;15.50;10.73;;;29.40;99.90;;;;;;5043319;28;20674;-78
2023/05/22 12:11:27;;;;;;;13.30;10.38;;;29.40;99.90;;;;;;5047972;28;20226;-77
2023/05/22 12:14:01;;;;;;;17.15;11.50;;;29.50;99.90;;;;;;5045597;28;20642;-78
2023/05/22 12:16:35;;;;;;;17.02;12.15;;;29.60;99.90;;;;;;5056263;28;20212;-76
2023/05/22 12:19:09;;;;;;;16.08;11.95;;;29.70;99.90;;;;;;5045111;28;20570;-76
2023/05/22 12:21:42;;;;;;;15.93;11.13;;;29.90;99.90;;;;;;5042712;28;20201;-78
2023/05/22 12:24:22;;;;;;;13.40;10.38;;;29.90;99.90;;;;;;5048751;28;20259;-75
2023/05/22 12:26:52;;;;;;;13.23;9.82;;;30.00;99.90;;;;;;5052432;28;20665;-76
2023/05/22 12:29:22;;;;;;;15.50;10.63;;;29.90;99.90;;;;;;5046179;28;20247;-77
2023/05/22 12:31:50;;;;;;;11.30;9.15;;;30.10;99.90;;;;;;5036117;28;20245;-75
2023/05/22 12:34:17;;;;;;;15.07;10.23;;;30.00;99.90;;;;;;5010039;28;20197;-77
2023/05/22 12:36:45;;;;;;;11.45;9.57;;;29.90;99.90;;;;;;5026125;28;20206;-78
2023/05/22 12:39:17;;;;;;;17.73;11.13;;;29.90;99.90;;;;;;5009561;28;20238;-77